createdAt,value
2022-08-06T00:00:07.542Z,98541.20
2022-08-06T00:02:59.861Z,98536.05
2022-08-06T00:06:17.613Z,98540.30
2022-08-06T00:09:56.266Z,98535.66
2022-08-06T00:12:51.472Z,98536.75
2022-08-06T00:16:08.938Z,98538.35
2022-08-06T00:19:20.373Z,98541.00
2022-08-06T00:22:33.797Z,98538.52
2022-08-06T00:25:52.423Z,98543.33
2022-08-06T00:29:03.137Z,98550.04
2022-08-06T00:32:24.181Z,98541.59
2022-08-06T00:35:34.051Z,98542.11
2022-08-06T00:38:50.600Z,98544.23
2022-08-06T00:42:05.657Z,98549.30
2022-08-06T00:45:24.908Z,98544.92
2022-08-06T00:48:53.360Z,98546.50
2022-08-06T00:51:53.274Z,98550.25
2022-08-06T00:55:17.067Z,98546.75
2022-08-06T00:58:22.722Z,98545.13
2022-08-06T01:01:49.866Z,98552.63
2022-08-06T01:04:52.401Z,98546.38
2022-08-06T01:08:07.821Z,98548.75
2022-08-06T01:11:26.221Z,98545.17
2022-08-06T01:14:40.959Z,98545.69
2022-08-06T01:17:59.765Z,98549.44
2022-08-06T01:22:00.516Z,98542.67
2022-08-06T01:24:53.234Z,98540.20
2022-08-06T01:28:10.724Z,98542.35
2022-08-06T01:31:28.356Z,98546.10
2022-08-06T01:34:47.287Z,98544.98
2022-08-06T01:38:04.065Z,98552.73
2022-08-06T01:41:21.397Z,98548.86
2022-08-06T01:44:44.508Z,98549.63
2022-08-06T01:47:58.690Z,98547.98
2022-08-06T01:51:17.295Z,98547.41
2022-08-06T01:54:32.460Z,98546.54
2022-08-06T01:58:19.606Z,98545.16
2022-08-06T02:01:07.156Z,98550.77
2022-08-06T02:04:22.275Z,98550.22
2022-08-06T02:08:36.639Z,98558.03
2022-08-06T02:10:56.674Z,98561.91
2022-08-06T02:14:11.590Z,98565.11
2022-08-06T02:18:04.454Z,98574.23
2022-08-06T02:20:53.036Z,98568.06
2022-08-06T02:24:07.591Z,98561.91
2022-08-06T02:27:24.101Z,98562.50
2022-08-06T02:30:42.697Z,98576.35
2022-08-06T02:34:03.334Z,98578.81
2022-08-06T02:37:22.898Z,98594.70
2022-08-06T02:40:34.404Z,98593.39
2022-08-06T02:43:53.672Z,98591.50
2022-08-06T02:47:17.139Z,98601.53
2022-08-06T02:50:33.518Z,98598.38
2022-08-06T02:54:04.999Z,98596.73
2022-08-06T02:57:11.377Z,98607.56
2022-08-06T03:00:29.513Z,98612.25
2022-08-06T03:03:54.564Z,98617.13
2022-08-06T03:07:01.727Z,98624.78
2022-08-06T03:10:17.172Z,98621.59
2022-08-06T03:13:36.130Z,98628.92
2022-08-06T03:16:50.972Z,98625.72
2022-08-06T03:20:04.401Z,98636.81
2022-08-06T03:23:18.634Z,98639.57
2022-08-06T03:26:32.708Z,98641.84
2022-08-06T03:29:48.346Z,98644.86
2022-08-06T03:33:07.562Z,98643.55
2022-08-06T03:36:21.684Z,98650.38
2022-08-06T03:39:38.055Z,98653.45
2022-08-06T03:42:52.557Z,98664.05
2022-08-06T03:46:09.179Z,98673.83
2022-08-06T03:49:26.420Z,98685.78
2022-08-06T03:52:43.425Z,98690.20
2022-08-06T03:55:59.504Z,98690.52
2022-08-06T03:59:14.492Z,98690.08
2022-08-06T04:02:37.301Z,98695.79
2022-08-06T04:05:47.986Z,98702.30
2022-08-06T04:09:01.327Z,98711.50
2022-08-06T04:13:06.537Z,98711.81
2022-08-06T04:15:32.723Z,98716.45
2022-08-06T04:18:49.925Z,98723.80
2022-08-06T04:23:00.217Z,98721.95
2022-08-06T04:25:20.594Z,98719.88
2022-08-06T04:28:36.661Z,98730.14
2022-08-06T04:32:12.188Z,98731.28
2022-08-06T04:36:05.788Z,98750.48
2022-08-06T04:38:30.150Z,98745.94
2022-08-06T04:41:44.671Z,98751.06
2022-08-06T04:45:00.681Z,98753.01
2022-08-06T04:48:21.048Z,98765.70
2022-08-06T04:52:36.457Z,98776.48
2022-08-06T04:54:51.646Z,98777.34
2022-08-06T04:58:11.409Z,98797.28
2022-08-06T05:01:22.302Z,98800.33
2022-08-06T05:04:38.254Z,98807.09
2022-08-06T05:07:57.730Z,98816.69
2022-08-06T05:11:14.750Z,98815.16
2022-08-06T05:14:35.631Z,98823.65
2022-08-06T05:17:53.244Z,98828.86
2022-08-06T05:21:08.980Z,98844.84
2022-08-06T05:24:39.203Z,98851.07
2022-08-06T05:27:54.777Z,98864.57
2022-08-06T05:30:55.012Z,98877.23
2022-08-06T05:34:09.013Z,98877.55
2022-08-06T05:38:00.684Z,98892.42
2022-08-06T05:40:53.422Z,98899.77
2022-08-06T05:43:58.789Z,98901.98
2022-08-06T05:47:15.740Z,98909.85
2022-08-06T05:50:34.221Z,98912.30
2022-08-06T05:54:03.890Z,98932.91
2022-08-06T05:57:09.863Z,98936.19
2022-08-06T06:00:42.227Z,98951.22
2022-08-06T06:03:43.617Z,98959.54
2022-08-06T06:06:58.921Z,98962.73
2022-08-06T06:10:16.636Z,98964.32
2022-08-06T06:13:40.158Z,98984.03
2022-08-06T06:16:53.246Z,98994.30
2022-08-06T06:20:11.414Z,98992.92
2022-08-06T06:23:30.623Z,98996.68
2022-08-06T06:26:52.109Z,98997.48
2022-08-06T06:30:11.328Z,99005.36
2022-08-06T06:33:41.638Z,99012.36
2022-08-06T06:36:49.077Z,99018.28
2022-08-06T06:40:14.296Z,99016.64
2022-08-06T06:43:43.965Z,99029.83
2022-08-06T06:46:49.677Z,99025.76
2022-08-06T06:50:09.104Z,99034.69
2022-08-06T06:53:24.041Z,99042.53
2022-08-06T06:56:41.812Z,99035.81
2022-08-06T07:00:04.179Z,99043.66
2022-08-06T07:03:15.158Z,99039.38
2022-08-06T07:06:43.368Z,99041.33
2022-08-06T07:10:00.128Z,99043.77
2022-08-06T07:13:02.160Z,99050.38
2022-08-06T07:16:34.943Z,99057.23
2022-08-06T07:19:33.190Z,99064.02
2022-08-06T07:24:03.439Z,99069.73
2022-08-06T07:26:09.930Z,99082.18
2022-08-06T07:29:48.561Z,99083.30
2022-08-06T07:32:48.551Z,99089.33
2022-08-06T07:36:02.530Z,99092.34
2022-08-06T07:39:20.133Z,99106.16
2022-08-06T07:42:35.354Z,99102.09
2022-08-06T07:45:55.587Z,99110.56
2022-08-06T07:49:11.240Z,99117.08
2022-08-06T07:52:27.207Z,99117.08
2022-08-06T07:55:41.749Z,99125.77
2022-08-06T07:58:57.792Z,99130.59
2022-08-06T08:02:14.477Z,99134.94
2022-08-06T08:05:42.712Z,99132.78
2022-08-06T08:09:01.122Z,99144.69
2022-08-06T08:12:29.594Z,99144.42
2022-08-06T08:15:34.661Z,99154.41
2022-08-06T08:18:52.169Z,99164.42
2022-08-06T08:22:07.302Z,99165.22
2022-08-06T08:25:21.874Z,99175.49
2022-08-06T08:28:36.984Z,99167.64
2022-08-06T08:31:59.827Z,99176.55
2022-08-06T08:35:09.394Z,99170.34
2022-08-06T08:38:26.697Z,99172.22
2022-08-06T08:41:48.006Z,99174.11
2022-08-06T08:44:57.053Z,99177.08
2022-08-06T08:48:13.709Z,99173.05
2022-08-06T08:51:30.466Z,99170.89
2022-08-06T08:54:47.939Z,99179.57
2022-08-06T08:58:38.471Z,99172.84
2022-08-06T09:01:52.281Z,99183.97
2022-08-06T09:04:36.228Z,99190.18
2022-08-06T09:08:01.555Z,99193.45
2022-08-06T09:11:20.700Z,99190.00
2022-08-06T09:20:50.246Z,99201.94
2022-08-06T09:24:05.085Z,99208.41
2022-08-06T09:27:59.200Z,99218.97
2022-08-06T09:30:35.886Z,99216.27
2022-08-06T09:34:29.053Z,99212.75
2022-08-06T09:37:17.998Z,99224.95
2022-08-06T09:40:32.238Z,99227.66
2022-08-06T09:44:02.894Z,99223.88
2022-08-06T09:47:02.712Z,99231.69
2022-08-06T09:50:21.419Z,99232.48
2022-08-06T09:53:42.119Z,99238.16
2022-08-06T09:56:49.491Z,99241.92
2022-08-06T10:00:03.196Z,99244.63
2022-08-06T10:04:03.745Z,99244.63
2022-08-06T10:06:39.816Z,99257.61
2022-08-06T10:10:02.008Z,99251.36
2022-08-06T10:16:33.052Z,99257.92
2022-08-06T10:19:52.192Z,99258.73
2022-08-06T10:23:04.617Z,99259.30
2022-08-06T10:26:21.331Z,99267.64
2022-08-06T10:29:37.439Z,99270.61
2022-08-06T10:32:55.077Z,99273.25
2022-08-06T10:36:26.775Z,99273.52
2022-08-06T10:40:06.904Z,99280.79
2022-08-06T10:42:58.865Z,99282.69
2022-08-06T10:46:17.951Z,99276.70
2022-08-06T10:50:31.124Z,99286.97
2022-08-06T10:52:50.514Z,99294.99
2022-08-06T10:56:05.058Z,99295.77
2022-08-06T10:59:25.637Z,99300.27
2022-08-06T11:02:41.342Z,99301.84
2022-08-06T11:05:59.714Z,99302.33
2022-08-06T11:09:59.737Z,99314.39
2022-08-06T11:12:53.946Z,99317.09
2022-08-06T11:16:08.164Z,99315.70
2022-08-06T11:19:24.228Z,99315.70
2022-08-06T11:22:53.826Z,99313.51
2022-08-06T11:26:02.225Z,99320.96
2022-08-06T11:29:17.420Z,99322.17
2022-08-06T11:32:53.253Z,99318.81
2022-08-06T11:36:09.474Z,99325.86
2022-08-06T11:39:39.042Z,99330.17
2022-08-06T11:42:51.431Z,99329.62
2022-08-06T11:46:35.794Z,99332.58
2022-08-06T11:49:48.980Z,99326.76
2022-08-06T11:53:02.851Z,99335.84
2022-08-06T11:56:16.640Z,99328.13
2022-08-06T11:59:31.235Z,99337.13
2022-08-06T12:02:57.144Z,99331.30
2022-08-06T12:06:29.248Z,99330.04
2022-08-06T12:09:45.104Z,99331.25
2022-08-06T12:13:02.025Z,99334.66
2022-08-06T12:16:35.929Z,99328.13
2022-08-06T12:20:02.793Z,99340.09
2022-08-06T12:23:14.815Z,99339.91
2022-08-06T12:26:33.547Z,99348.11
2022-08-06T12:29:48.090Z,99350.61
2022-08-06T12:33:12.422Z,99350.52
2022-08-06T12:36:31.617Z,99356.36
2022-08-06T12:40:03.025Z,99363.30
2022-08-06T12:43:29.494Z,99360.95
2022-08-06T12:46:35.412Z,99365.67
2022-08-06T12:49:49.152Z,99363.92
2022-08-06T12:53:15.312Z,99362.73
2022-08-06T12:56:33.164Z,99368.84
2022-08-06T12:59:47.223Z,99369.55
2022-08-06T13:03:01.930Z,99367.75
2022-08-06T13:06:31.788Z,99375.73
2022-08-06T13:09:56.031Z,99370.31
2022-08-06T13:14:14.640Z,99378.03
2022-08-06T13:16:25.448Z,99375.47
2022-08-06T13:19:39.581Z,99381.42
2022-08-06T13:23:00.763Z,99383.18
2022-08-06T13:26:27.006Z,99386.31
2022-08-06T13:30:32.743Z,99390.30
2022-08-06T13:32:55.071Z,99400.83
2022-08-06T13:36:17.707Z,99401.88
2022-08-06T13:39:37.966Z,99404.55
2022-08-06T13:43:05.389Z,99408.28
2022-08-06T13:46:27.963Z,99406.06
2022-08-06T13:49:38.551Z,99414.59
2022-08-06T13:52:54.982Z,99409.67
2022-08-06T13:56:11.402Z,99408.27
2022-08-06T13:59:42.623Z,99405.77
2022-08-06T14:02:42.701Z,99400.39
2022-08-06T14:05:56.303Z,99407.29
2022-08-06T14:09:19.970Z,99398.41
2022-08-06T14:12:29.853Z,99397.56
2022-08-06T14:15:42.970Z,99398.41
2022-08-06T14:19:03.551Z,99402.51
2022-08-06T14:22:13.230Z,99395.24
2022-08-06T14:25:28.652Z,99393.59
2022-08-06T14:28:48.273Z,99402.34
2022-08-06T14:31:59.174Z,99406.55
2022-08-06T14:35:14.782Z,99412.14
2022-08-06T14:38:32.109Z,99409.00
2022-08-06T14:41:58.374Z,99411.33
2022-08-06T14:45:13.173Z,99408.27
2022-08-06T14:48:31.358Z,99411.16
2022-08-06T14:52:19.534Z,99412.44
2022-08-06T14:55:07.114Z,99408.33
2022-08-06T14:58:19.569Z,99413.48
2022-08-06T15:01:38.134Z,99418.52
2022-08-06T15:04:52.616Z,99418.86
2022-08-06T15:08:08.415Z,99419.33
2022-08-06T15:11:23.153Z,99416.50
2022-08-06T15:14:50.851Z,99423.39
2022-08-06T15:18:11.513Z,99420.23
2022-08-06T15:21:15.979Z,99422.12
2022-08-06T15:24:28.748Z,99420.70
2022-08-06T15:27:42.700Z,99422.78
2022-08-06T15:30:59.105Z,99424.05
2022-08-06T15:34:12.349Z,99419.05
2022-08-06T15:37:54.645Z,99425.47
2022-08-06T15:40:43.041Z,99421.94
2022-08-06T15:43:57.093Z,99424.63
2022-08-06T15:47:14.963Z,99423.02
2022-08-06T15:50:36.240Z,99423.22
2022-08-06T15:53:54.626Z,99425.91
2022-08-06T15:56:59.900Z,99434.44
2022-08-06T16:00:17.557Z,99432.56
2022-08-06T16:03:33.116Z,99437.22
2022-08-06T16:06:48.202Z,99436.38
2022-08-06T16:10:07.368Z,99444.59
2022-08-06T16:13:19.673Z,99450.67
2022-08-06T16:16:36.084Z,99445.11
2022-08-06T16:19:50.454Z,99448.69
2022-08-06T16:23:06.940Z,99445.47
2022-08-06T16:26:40.705Z,99447.59
2022-08-06T16:29:37.509Z,99449.28
2022-08-06T16:32:51.096Z,99448.70
2022-08-06T16:36:04.620Z,99447.25
2022-08-06T16:39:35.934Z,99447.25
2022-08-06T16:42:35.823Z,99446.91
2022-08-06T16:45:49.924Z,99443.14
2022-08-06T16:49:04.538Z,99449.79
2022-08-06T16:52:44.307Z,99442.56
2022-08-06T16:55:34.953Z,99453.09
2022-08-06T16:58:53.318Z,99455.16
2022-08-06T17:02:22.433Z,99460.54
2022-08-06T17:05:45.295Z,99448.98
2022-08-06T17:08:52.691Z,99460.54
2022-08-06T17:12:07.473Z,99458.69
2022-08-06T17:15:36.458Z,99467.95
2022-08-06T17:18:38.120Z,99462.34
2022-08-06T17:21:59.688Z,99465.88
2022-08-06T17:25:07.296Z,99467.52
2022-08-06T17:28:27.095Z,99465.88
2022-08-06T17:31:55.098Z,99463.56
2022-08-06T17:34:53.725Z,99457.58
2022-08-06T17:38:08.589Z,99462.14
2022-08-06T17:41:26.730Z,99461.30
2022-08-06T17:44:39.346Z,99466.45
2022-08-06T17:47:55.170Z,99468.77
2022-08-06T17:51:09.581Z,99468.41
2022-08-06T17:54:46.521Z,99468.41
2022-08-06T17:58:03.797Z,99470.71
2022-08-06T18:01:09.846Z,99478.97
2022-08-06T18:04:22.448Z,99478.16
2022-08-06T18:08:11.158Z,99482.12
2022-08-06T18:10:47.547Z,99485.45
2022-08-06T18:14:01.936Z,99490.67
2022-08-06T18:17:17.178Z,99490.25
2022-08-06T18:20:32.824Z,99497.92
2022-08-06T18:23:47.083Z,99501.29
2022-08-06T18:27:00.736Z,99501.71
2022-08-06T18:30:37.568Z,99505.17
2022-08-06T18:33:36.080Z,99502.72
2022-08-06T18:36:50.014Z,99503.59
2022-08-06T18:40:19.430Z,99509.16
2022-08-06T18:43:19.903Z,99513.72
2022-08-06T18:46:56.150Z,99515.79
2022-08-06T18:49:54.142Z,99511.67
2022-08-06T18:53:09.421Z,99509.05
2022-08-06T18:56:24.808Z,99521.44
2022-08-06T18:59:43.388Z,99533.00
2022-08-06T19:02:55.670Z,99529.28
2022-08-06T19:06:09.538Z,99528.24
2022-08-06T19:09:25.150Z,99531.16
2022-08-06T19:12:42.683Z,99538.38
2022-08-06T19:15:57.004Z,99541.50
2022-08-06T19:19:10.715Z,99540.25
2022-08-06T19:22:25.582Z,99541.92
2022-08-06T19:25:52.036Z,99553.50
2022-08-06T19:28:56.167Z,99560.10
2022-08-06T19:32:11.717Z,99551.02
2022-08-06T19:36:03.512Z,99560.50
2022-08-06T19:38:45.780Z,99552.89
2022-08-06T19:42:02.111Z,99558.26
2022-08-06T19:45:17.757Z,99561.98
2022-08-06T19:48:31.698Z,99564.89
2022-08-06T19:52:04.478Z,99568.61
2022-08-06T19:56:05.203Z,99573.53
2022-08-06T19:58:19.950Z,99577.28
2022-08-06T20:01:36.240Z,99582.26
2022-08-06T20:04:53.059Z,99573.19
2022-08-06T20:08:31.267Z,99578.77
2022-08-06T20:12:02.703Z,99582.53
2022-08-06T20:14:38.936Z,99575.91
2022-08-06T20:17:56.099Z,99577.97
2022-08-06T20:21:19.745Z,99576.33
2022-08-06T20:24:28.227Z,99567.87
2022-08-06T20:29:07.292Z,99571.39
2022-08-06T20:30:58.518Z,99584.64
2022-08-06T20:34:12.771Z,99575.34
2022-08-06T20:37:29.495Z,99574.94
2022-08-06T20:41:57.376Z,99573.14
2022-08-06T20:44:04.791Z,99570.45
2022-08-06T20:47:46.103Z,99578.50
2022-08-06T20:50:33.734Z,99572.30
2022-08-06T20:53:55.982Z,99584.06
2022-08-06T20:57:04.928Z,99583.47
2022-08-06T21:00:28.427Z,99578.50
2022-08-06T21:05:13.615Z,99591.30
2022-08-06T21:06:55.611Z,99584.28
2022-08-06T21:10:12.052Z,99591.48
2022-08-06T21:13:35.723Z,99594.17
2022-08-06T21:16:45.535Z,99597.30
2022-08-06T21:20:09.340Z,99595.64
2022-08-06T21:23:12.501Z,99597.70
2022-08-06T21:26:34.790Z,99598.33
2022-08-06T21:30:08.961Z,99600.82
2022-08-06T21:32:59.002Z,99604.50
2022-08-06T21:36:19.279Z,99602.44
2022-08-06T21:39:56.615Z,99603.69
2022-08-06T21:42:47.947Z,99604.72
2022-08-06T21:46:06.226Z,99596.05
2022-08-06T21:49:58.120Z,99602.25
2022-08-06T21:52:33.950Z,99604.72
2022-08-06T21:56:37.584Z,99600.01
2022-08-06T21:59:03.242Z,99603.72
2022-08-06T22:02:21.769Z,99604.75
2022-08-06T22:06:20.436Z,99599.19
2022-08-06T22:08:53.053Z,99595.88
2022-08-06T22:12:38.507Z,99597.34
2022-08-06T22:15:19.183Z,99591.35
2022-08-06T22:18:32.731Z,99591.35
2022-08-06T22:21:50.408Z,99586.59
2022-08-06T22:25:01.765Z,99588.02
2022-08-06T22:28:23.614Z,99586.80
2022-08-06T22:31:56.995Z,99578.56
2022-08-06T22:34:51.709Z,99580.83
2022-08-06T22:38:16.819Z,99580.42
2022-08-06T22:41:20.691Z,99576.52
2022-08-06T22:44:57.401Z,99572.61
2022-08-06T22:47:55.750Z,99576.33
2022-08-06T22:51:18.623Z,99575.28
2022-08-06T22:54:30.379Z,99568.91
2022-08-06T22:58:04.225Z,99576.55
2022-08-06T23:00:57.777Z,99573.66
2022-08-06T23:04:09.278Z,99572.22
2022-08-06T23:07:26.060Z,99564.16
2022-08-06T23:10:38.841Z,99566.86
2022-08-06T23:13:54.210Z,99561.51
2022-08-06T23:17:09.465Z,99561.91
2022-08-06T23:20:25.839Z,99569.92
2022-08-06T23:23:46.883Z,99570.56
2022-08-06T23:26:58.812Z,99571.52
2022-08-06T23:30:20.132Z,99562.86
2022-08-06T23:33:38.491Z,99558.73
2022-08-06T23:36:45.895Z,99557.88
2022-08-06T23:40:12.051Z,99557.25
2022-08-06T23:43:19.435Z,99557.88
2022-08-06T23:46:33.469Z,99562.39
2022-08-06T23:49:47.109Z,99553.34
2022-08-06T23:53:00.644Z,99555.80
2022-08-06T23:56:16.877Z,99556.02
2022-08-06T23:59:45.779Z,99553.75
